createdAt,value
2018-06-01T00:00:53.003Z,0.00
2018-06-01T00:01:53.030Z,0.00
2018-06-01T00:02:53.053Z,0.00
2018-06-01T00:03:53.075Z,0.00
2018-06-01T00:04:53.142Z,0.00
2018-06-01T00:05:53.124Z,0.00
2018-06-01T00:06:53.155Z,0.00
2018-06-01T00:07:53.168Z,0.00
2018-06-01T00:08:53.181Z,0.00
2018-06-01T00:09:53.210Z,0.00
2018-06-01T00:10:53.243Z,0.00
2018-06-01T00:11:53.260Z,0.00
2018-06-01T00:12:53.271Z,0.00
2018-06-01T00:13:53.294Z,0.00
2018-06-01T00:14:53.323Z,0.00
2018-06-01T00:15:53.346Z,0.00
2018-06-01T00:16:53.364Z,0.00
2018-06-01T00:17:53.391Z,0.00
2018-06-01T00:18:53.408Z,0.00
2018-06-01T00:19:53.424Z,0.00
2018-06-01T00:20:53.450Z,0.00
2018-06-01T00:21:53.481Z,0.00
2018-06-01T00:22:53.513Z,0.00
2018-06-01T00:23:53.519Z,0.00
2018-06-01T00:24:53.537Z,0.00
2018-06-01T00:25:53.565Z,0.00
2018-06-01T00:26:53.597Z,0.00
2018-06-01T00:27:53.608Z,0.00
2018-06-01T00:28:53.636Z,0.00
2018-06-01T00:29:53.670Z,0.00
2018-06-01T00:30:53.684Z,0.00
2018-06-01T00:31:53.700Z,0.00
2018-06-01T00:32:53.726Z,0.00
2018-06-01T00:33:53.740Z,0.00
2018-06-01T00:34:53.765Z,0.00
2018-06-01T00:35:53.790Z,0.00
2018-06-01T00:36:53.808Z,0.00
2018-06-01T00:37:53.825Z,0.00
2018-06-01T00:38:53.854Z,0.00
2018-06-01T00:39:53.868Z,0.00
2018-06-01T00:40:53.902Z,0.00
2018-06-01T00:41:53.916Z,0.00
2018-06-01T00:42:53.935Z,0.00
2018-06-01T00:43:53.955Z,0.00
2018-06-01T00:44:54.007Z,0.00
2018-06-01T00:45:54.012Z,0.00
2018-06-01T00:46:54.031Z,0.00
2018-06-01T00:47:54.047Z,0.00
2018-06-01T00:48:54.068Z,0.00
2018-06-01T00:49:54.121Z,0.00
2018-06-01T00:50:54.136Z,0.00
2018-06-01T00:51:54.142Z,0.00
2018-06-01T00:52:54.158Z,0.00
2018-06-01T00:53:54.182Z,0.00
2018-06-01T00:54:54.203Z,0.00
2018-06-01T00:55:54.228Z,0.00
2018-06-01T00:56:54.259Z,0.00
2018-06-01T00:57:54.267Z,0.00
2018-06-01T00:58:54.292Z,0.00
2018-06-01T00:59:54.319Z,0.00
2018-06-01T01:00:54.335Z,0.00
2018-06-01T01:01:54.360Z,0.00
2018-06-01T01:02:54.401Z,0.00
2018-06-01T01:03:54.419Z,0.00
2018-06-01T01:04:54.424Z,0.00
2018-06-01T01:05:54.462Z,0.00
2018-06-01T01:06:54.470Z,0.00
2018-06-01T01:07:54.491Z,0.00
2018-06-01T01:08:54.509Z,0.00
2018-06-01T01:09:54.531Z,0.00
2018-06-01T01:10:54.566Z,0.00
2018-06-01T01:11:54.575Z,0.00
2018-06-01T01:12:54.600Z,0.00
2018-06-01T01:13:54.620Z,0.00
2018-06-01T01:14:54.640Z,0.00
2018-06-01T01:15:54.681Z,0.00
2018-06-01T01:16:54.705Z,0.00
2018-06-01T01:17:54.702Z,0.00
2018-06-01T01:18:54.734Z,0.00
2018-06-01T01:19:54.751Z,0.00
2018-06-01T01:20:54.772Z,0.00
2018-06-01T01:21:54.817Z,0.00
2018-06-01T01:22:54.816Z,0.00
2018-06-01T01:23:54.844Z,0.00
2018-06-01T01:24:54.860Z,0.00
2018-06-01T01:25:54.880Z,0.00
2018-06-01T01:26:54.901Z,0.00
2018-06-01T01:27:54.924Z,0.00
2018-06-01T01:28:54.959Z,0.00
2018-06-01T01:29:54.970Z,0.00
2018-06-01T01:30:54.988Z,0.00
2018-06-01T01:31:55.028Z,0.00
2018-06-01T01:32:55.032Z,0.00
2018-06-01T01:33:55.051Z,0.00
2018-06-01T01:34:55.084Z,0.00
2018-06-01T01:35:55.097Z,0.00
2018-06-01T01:36:55.146Z,0.00
2018-06-01T01:37:55.140Z,0.00
2018-06-01T01:38:55.161Z,0.00
2018-06-01T01:39:55.197Z,0.00
2018-06-01T01:40:55.204Z,0.00
2018-06-01T01:41:55.237Z,0.00
2018-06-01T01:42:55.252Z,0.00
2018-06-01T01:43:55.270Z,0.00
2018-06-01T01:44:55.287Z,0.00
2018-06-01T01:45:55.325Z,0.00
2018-06-01T01:46:55.348Z,0.00
2018-06-01T01:47:55.359Z,0.00
2018-06-01T01:48:55.385Z,0.00
2018-06-01T01:49:55.422Z,0.00
2018-06-01T01:50:55.424Z,0.00
2018-06-01T01:51:55.456Z,0.00
2018-06-01T01:52:55.471Z,0.00
2018-06-01T01:53:55.498Z,0.00
2018-06-01T01:54:55.537Z,0.00
2018-06-01T01:55:55.537Z,0.00
2018-06-01T01:56:55.559Z,0.00
2018-06-01T01:57:55.582Z,0.00
2018-06-01T01:58:55.610Z,0.00
2018-06-01T01:59:55.617Z,0.00
2018-06-01T02:00:55.641Z,0.00
2018-06-01T02:01:55.688Z,0.00
2018-06-01T02:02:55.692Z,0.00
2018-06-01T02:03:55.715Z,0.00
2018-06-01T02:04:55.740Z,0.00
2018-06-01T02:05:55.769Z,0.00
2018-06-01T02:06:55.779Z,0.00
2018-06-01T02:07:55.815Z,0.00
2018-06-01T02:08:55.829Z,0.00
2018-06-01T02:09:55.874Z,0.00
2018-06-01T02:10:55.864Z,0.00
2018-06-01T02:11:55.878Z,0.00
2018-06-01T02:12:55.912Z,0.00
2018-06-01T02:13:55.943Z,0.00
2018-06-01T02:14:55.947Z,0.00
2018-06-01T02:15:55.969Z,0.00
2018-06-01T02:16:56.002Z,0.00
2018-06-01T02:17:56.017Z,0.00
2018-06-01T02:18:56.046Z,0.00
2018-06-01T02:19:56.057Z,0.00
2018-06-01T02:20:56.076Z,0.00
2018-06-01T02:21:56.136Z,0.00
2018-06-01T02:22:56.121Z,0.00
2018-06-01T02:23:56.141Z,0.00
2018-06-01T02:24:56.183Z,0.00
2018-06-01T02:25:56.190Z,4.00
2018-06-01T02:26:56.211Z,4.00
2018-06-01T02:27:56.229Z,4.00
2018-06-01T02:28:56.252Z,4.00
2018-06-01T02:29:56.272Z,4.00
2018-06-01T02:30:56.328Z,4.00
2018-06-01T02:31:56.335Z,4.00
2018-06-01T02:32:56.342Z,0.00
2018-06-01T02:33:56.360Z,0.00
2018-06-01T02:34:56.385Z,0.00
2018-06-01T02:35:56.411Z,0.00
2018-06-01T02:36:56.431Z,4.00
2018-06-01T02:37:56.449Z,4.00
2018-06-01T02:38:56.473Z,4.00
2018-06-01T02:39:56.491Z,4.00
2018-06-01T02:40:56.509Z,4.00
2018-06-01T02:41:56.537Z,4.00
2018-06-01T02:42:56.566Z,4.00
2018-06-01T02:43:56.618Z,4.00
2018-06-01T02:44:56.604Z,8.00
2018-06-01T02:45:56.634Z,4.00
2018-06-01T02:46:56.664Z,4.00
2018-06-01T02:47:56.666Z,4.00
2018-06-01T02:48:56.697Z,8.00
2018-06-01T02:49:56.723Z,8.00
2018-06-01T02:50:56.734Z,8.00
2018-06-01T02:51:56.756Z,8.00
2018-06-01T02:52:56.777Z,12.00
2018-06-01T02:53:56.831Z,12.00
2018-06-01T02:54:56.825Z,16.00
2018-06-01T02:55:56.845Z,16.00
2018-06-01T02:56:56.880Z,16.00
2018-06-01T02:57:56.883Z,20.00
2018-06-01T02:58:56.925Z,20.00
2018-06-01T02:59:56.948Z,20.00
2018-06-01T03:00:56.958Z,24.00
2018-06-01T03:01:56.977Z,28.00
2018-06-01T03:02:56.997Z,32.00
2018-06-01T03:03:57.019Z,36.00
2018-06-01T03:04:57.064Z,40.00
2018-06-01T03:05:57.090Z,44.00
2018-06-01T03:06:57.100Z,44.00
2018-06-01T03:07:57.100Z,48.00
2018-06-01T03:08:57.135Z,56.00
2018-06-01T03:09:57.154Z,60.00
2018-06-01T03:10:57.184Z,68.00
2018-06-01T03:11:57.232Z,72.00
2018-06-01T03:12:57.217Z,76.00
2018-06-01T03:13:57.237Z,84.00
2018-06-01T03:14:57.258Z,96.00
2018-06-01T03:15:57.286Z,100.00
2018-06-01T03:16:57.314Z,108.00
2018-06-01T03:17:57.338Z,116.00
2018-06-01T03:18:57.346Z,120.00
2018-06-01T03:19:57.367Z,124.00
2018-06-01T03:20:57.389Z,132.00
2018-06-01T03:21:57.427Z,144.00
2018-06-01T03:22:57.432Z,148.00
2018-06-01T03:23:57.458Z,160.00
2018-06-01T03:24:57.478Z,168.00
2018-06-01T03:25:57.501Z,180.00
2018-06-01T03:26:57.553Z,188.00
2018-06-01T03:27:57.562Z,204.00
2018-06-01T03:28:57.565Z,216.00
2018-06-01T03:29:57.609Z,228.00
2018-06-01T03:30:57.617Z,248.00
2018-06-01T03:31:57.633Z,264.00
2018-06-01T03:32:57.676Z,276.00
2018-06-01T03:33:57.678Z,292.00
2018-06-01T03:34:57.698Z,316.00
2018-06-01T03:35:57.745Z,340.00
2018-06-01T03:36:57.774Z,368.00
2018-06-01T03:37:57.762Z,396.00
2018-06-01T03:38:57.800Z,424.00
2018-06-01T03:39:57.809Z,452.00
2018-06-01T03:40:57.843Z,480.00
2018-06-01T03:41:57.846Z,508.00
2018-06-01T03:42:57.874Z,540.00
2018-06-01T03:43:57.903Z,572.00
2018-06-01T03:44:57.919Z,608.00
2018-06-01T03:45:57.935Z,644.00
2018-06-01T03:46:57.971Z,676.00
2018-06-01T03:47:57.992Z,704.00
2018-06-01T03:48:58.017Z,736.00
2018-06-01T03:49:58.026Z,764.00
2018-06-01T03:50:58.053Z,796.00
2018-06-01T03:51:58.074Z,828.00
2018-06-01T03:52:58.091Z,864.00
2018-06-01T03:53:58.111Z,908.00
2018-06-01T03:54:58.144Z,948.00
2018-06-01T03:55:58.174Z,992.00
2018-06-01T03:56:58.182Z,1036.00
2018-06-01T03:57:58.203Z,1084.00
2018-06-01T03:58:58.226Z,1128.00
2018-06-01T03:59:58.248Z,1180.00
2018-06-01T04:00:58.269Z,1228.00
2018-06-01T04:01:58.296Z,1292.00
2018-06-01T04:02:58.346Z,1364.00
2018-06-01T04:03:58.337Z,1444.00
2018-06-01T04:04:58.355Z,1532.00
2018-06-01T04:05:58.380Z,1620.00
2018-06-01T04:06:58.411Z,1708.00
2018-06-01T04:07:58.422Z,1796.00
2018-06-01T04:08:58.445Z,1904.00
2018-06-01T04:09:58.471Z,2024.00
2018-06-01T04:10:58.493Z,2176.00
2018-06-01T04:11:58.504Z,2356.00
2018-06-01T04:12:58.538Z,2568.00
2018-06-01T04:13:58.563Z,2788.00
2018-06-01T04:14:58.590Z,3020.00
2018-06-01T04:15:58.607Z,3248.00
2018-06-01T04:16:58.619Z,3476.00
2018-06-01T04:17:58.635Z,3700.00
2018-06-01T04:18:58.669Z,3924.00
2018-06-01T04:19:58.688Z,4144.00
2018-06-01T04:20:58.708Z,4376.00
2018-06-01T04:21:58.729Z,4612.00
2018-06-01T04:22:58.760Z,4840.00
2018-06-01T04:23:58.777Z,5068.00
2018-06-01T04:24:58.797Z,5272.00
2018-06-01T04:25:58.828Z,5496.00
2018-06-01T04:26:58.849Z,5764.00
2018-06-01T04:27:58.863Z,6164.00
2018-06-01T04:28:58.894Z,6592.00
2018-06-01T04:29:58.915Z,6900.00
2018-06-01T04:30:58.935Z,7188.00
2018-06-01T04:31:58.951Z,7412.00
2018-06-01T04:32:58.988Z,7616.00
2018-06-01T04:33:59.006Z,7888.00
2018-06-01T04:34:59.025Z,8188.00
2018-06-01T04:35:59.046Z,8452.00
2018-06-01T04:36:59.094Z,8652.00
2018-06-01T04:37:59.092Z,8752.00
2018-06-01T04:38:59.125Z,8764.00
2018-06-01T04:39:59.158Z,8708.00
2018-06-01T04:40:59.158Z,8596.00
2018-06-01T04:41:59.176Z,8448.00
2018-06-01T04:42:59.202Z,8344.00
2018-06-01T04:43:59.229Z,8316.00
2018-06-01T04:44:59.256Z,8368.00
2018-06-01T04:45:59.274Z,8528.00
2018-06-01T04:46:59.305Z,8820.00
2018-06-01T04:47:59.315Z,9364.00
2018-06-01T04:48:59.345Z,10160.00
2018-06-01T04:49:59.370Z,11080.00
2018-06-01T04:50:59.392Z,13008.00
2018-06-01T04:51:59.414Z,13904.00
2018-06-01T04:52:59.432Z,19840.00
2018-06-01T04:53:59.460Z,15060.00
2018-06-01T04:54:59.484Z,19264.00
2018-06-01T04:55:59.499Z,19552.00
2018-06-01T04:56:59.551Z,20224.00
2018-06-01T04:57:59.570Z,20224.00
2018-06-01T04:58:59.567Z,20224.00
2018-06-01T04:59:59.598Z,20832.00
2018-06-01T05:00:59.626Z,22624.00
2018-06-01T05:01:59.646Z,24288.00
2018-06-01T05:02:59.668Z,25088.00
2018-06-01T05:03:59.696Z,24704.00
2018-06-01T05:04:59.720Z,21344.00
2018-06-01T05:05:59.739Z,27264.00
2018-06-01T05:06:59.768Z,27360.00
2018-06-01T05:07:59.793Z,27840.00
2018-06-01T05:08:59.855Z,28032.00
2018-06-01T05:09:59.839Z,29152.00
2018-06-01T05:10:59.863Z,29280.00
2018-06-01T05:11:59.889Z,28992.00
2018-06-01T05:12:59.918Z,24576.00
2018-06-01T05:13:59.940Z,24224.00
2018-06-01T05:14:59.981Z,26592.00
2018-06-01T05:15:59.994Z,28704.00
2018-06-01T05:17:00.013Z,28736.00
2018-06-01T05:18:00.039Z,25376.00
2018-06-01T05:19:00.082Z,17204.00
2018-06-01T05:20:00.119Z,16256.00
2018-06-01T05:21:00.115Z,16296.00
2018-06-01T05:22:00.140Z,15388.00
2018-06-01T05:23:00.170Z,12608.00
2018-06-01T05:24:00.216Z,11676.00
2018-06-01T05:25:00.216Z,11248.00
2018-06-01T05:26:00.259Z,11128.00
2018-06-01T05:27:00.278Z,11224.00
2018-06-01T05:28:00.308Z,11432.00
2018-06-01T05:29:00.323Z,11716.00
2018-06-01T05:30:00.351Z,11984.00
2018-06-01T05:31:00.369Z,12200.00
2018-06-01T05:32:00.403Z,12440.00
2018-06-01T05:33:00.417Z,12916.00
2018-06-01T05:34:00.444Z,13848.00
2018-06-01T05:35:00.474Z,15132.00
2018-06-01T05:36:00.494Z,16896.00
2018-06-01T05:37:00.523Z,15120.00
2018-06-01T05:38:00.545Z,14864.00
2018-06-01T05:39:00.566Z,14760.00
2018-06-01T05:40:00.597Z,14592.00
2018-06-01T05:41:00.628Z,14540.00
2018-06-01T05:42:00.639Z,14864.00
2018-06-01T05:43:00.668Z,16140.00
2018-06-01T05:44:00.702Z,18368.00
2018-06-01T05:45:00.718Z,19168.00
2018-06-01T05:46:00.751Z,24032.00
2018-06-01T05:47:00.768Z,23040.00
2018-06-01T05:48:00.788Z,21440.00
2018-06-01T05:49:00.826Z,22880.00
2018-06-01T05:50:00.860Z,31264.00
2018-06-01T05:51:00.867Z,32576.00
2018-06-01T05:52:00.879Z,31808.00
2018-06-01T05:53:00.912Z,28992.00
2018-06-01T05:54:00.934Z,30432.00
2018-06-01T05:55:00.998Z,35744.00
2018-06-01T05:56:00.982Z,37472.00
2018-06-01T05:57:01.011Z,35392.00
2018-06-01T05:58:01.031Z,27648.00
2018-06-01T05:59:01.065Z,20864.00
2018-06-01T06:00:01.089Z,19584.00
2018-06-01T06:01:01.128Z,19456.00
2018-06-01T06:02:01.136Z,26848.00
2018-06-01T06:03:01.161Z,33696.00
2018-06-01T06:04:01.188Z,34976.00
2018-06-01T06:05:01.218Z,35840.00
2018-06-01T06:06:01.243Z,35808.00
2018-06-01T06:07:01.280Z,35488.00
2018-06-01T06:08:01.300Z,34048.00
2018-06-01T06:09:01.317Z,27296.00
2018-06-01T06:10:01.348Z,18336.00
2018-06-01T06:11:01.377Z,17064.00
2018-06-01T06:12:01.408Z,17760.00
2018-06-01T06:13:01.422Z,18944.00
2018-06-01T06:14:01.447Z,18848.00
2018-06-01T06:15:01.476Z,20384.00
2018-06-01T06:16:01.507Z,30144.00
2018-06-01T06:17:01.527Z,29248.00
2018-06-01T06:18:01.566Z,18368.00
2018-06-01T06:19:01.585Z,15452.00
2018-06-01T06:20:01.625Z,14908.00
2018-06-01T06:21:01.633Z,14768.00
2018-06-01T06:22:01.657Z,14672.00
2018-06-01T06:23:01.688Z,14632.00
2018-06-01T06:24:01.718Z,14652.00
2018-06-01T06:25:01.733Z,15032.00
2018-06-01T06:26:01.783Z,16760.00
2018-06-01T06:27:01.794Z,23360.00
2018-06-01T06:28:01.809Z,17664.00
2018-06-01T06:29:01.834Z,18784.00
2018-06-01T06:30:01.864Z,51200.00
2018-06-01T06:31:01.894Z,18592.00
2018-06-01T06:32:01.911Z,16816.00
2018-06-01T06:33:01.951Z,17184.00
2018-06-01T06:34:01.977Z,16468.00
2018-06-01T06:35:01.991Z,15940.00
2018-06-01T06:36:02.009Z,15356.00
2018-06-01T06:37:02.041Z,15712.00
2018-06-01T06:38:02.066Z,16928.00
2018-06-01T06:39:02.100Z,16512.00
2018-06-01T06:40:02.126Z,16256.00
2018-06-01T06:41:02.146Z,15944.00
2018-06-01T06:42:02.163Z,15160.00
2018-06-01T06:43:02.205Z,14992.00
2018-06-01T06:44:02.223Z,15648.00
2018-06-01T06:45:02.239Z,17824.00
2018-06-01T06:46:02.264Z,30272.00
2018-06-01T06:47:02.287Z,23904.00
2018-06-01T06:48:02.315Z,18720.00
2018-06-01T06:49:02.349Z,18080.00
2018-06-01T06:50:02.378Z,18304.00
2018-06-01T06:51:02.399Z,19360.00
2018-06-01T06:52:02.415Z,19520.00
2018-06-01T06:53:02.455Z,25056.00
2018-06-01T06:54:02.471Z,21120.00
2018-06-01T06:55:02.492Z,21056.00
2018-06-01T06:56:02.520Z,21536.00
2018-06-01T06:57:02.538Z,20960.00
2018-06-01T06:58:02.574Z,20384.00
2018-06-01T06:59:02.618Z,20224.00
2018-06-01T07:00:02.626Z,20224.00
2018-06-01T07:01:02.641Z,19840.00
2018-06-01T07:02:02.673Z,19360.00
2018-06-01T07:03:02.695Z,18912.00
2018-06-01T07:04:02.719Z,18624.00
2018-06-01T07:05:02.750Z,18592.00
2018-06-01T07:06:02.768Z,18656.00
2018-06-01T07:07:02.802Z,18752.00
2018-06-01T07:08:02.821Z,18816.00
2018-06-01T07:09:02.861Z,18912.00
2018-06-01T07:10:02.888Z,19104.00
2018-06-01T07:11:02.895Z,19552.00
2018-06-01T07:12:02.924Z,20320.00
2018-06-01T07:13:02.962Z,22432.00
2018-06-01T07:14:02.968Z,24608.00
2018-06-01T07:15:03.007Z,28768.00
2018-06-01T07:16:03.042Z,36576.00
2018-06-01T07:17:03.057Z,32128.00
2018-06-01T07:18:03.076Z,31936.00
2018-06-01T07:19:03.097Z,33536.00
2018-06-01T07:20:03.123Z,32160.00
2018-06-01T07:21:03.159Z,30752.00
2018-06-01T07:22:03.173Z,26688.00
2018-06-01T07:23:03.215Z,26144.00
2018-06-01T07:24:03.247Z,23520.00
2018-06-01T07:25:03.272Z,22336.00
2018-06-01T07:26:03.292Z,21088.00
2018-06-01T07:27:03.317Z,20544.00
2018-06-01T07:28:03.350Z,20960.00
2018-06-01T07:29:03.357Z,20736.00
2018-06-01T07:30:03.383Z,19008.00
2018-06-01T07:31:03.413Z,18016.00
2018-06-01T07:32:03.450Z,17216.00
2018-06-01T07:33:03.465Z,16564.00
2018-06-01T07:34:03.492Z,15904.00
2018-06-01T07:35:03.532Z,15448.00
2018-06-01T07:36:03.542Z,14836.00
2018-06-01T07:37:03.593Z,14116.00
2018-06-01T07:38:03.593Z,13416.00
2018-06-01T07:39:03.625Z,12884.00
2018-06-01T07:40:03.637Z,13656.00
2018-06-01T07:41:03.674Z,11944.00
2018-06-01T07:42:03.691Z,11268.00
2018-06-01T07:43:03.730Z,11036.00
2018-06-01T07:44:03.747Z,11136.00
2018-06-01T07:45:03.779Z,11520.00
2018-06-01T07:46:03.800Z,11956.00
2018-06-01T07:47:03.829Z,12468.00
2018-06-01T07:48:03.849Z,12924.00
2018-06-01T07:49:03.872Z,13484.00
2018-06-01T07:50:03.905Z,14216.00
2018-06-01T07:51:03.927Z,15200.00
2018-06-01T07:52:03.976Z,16736.00
2018-06-01T07:53:03.979Z,17376.00
2018-06-01T07:54:04.018Z,17856.00
2018-06-01T07:55:04.033Z,19008.00
2018-06-01T07:56:04.065Z,22912.00
2018-06-01T07:57:04.078Z,28800.00
2018-06-01T07:58:04.118Z,60160.00
2018-06-01T07:59:04.130Z,59744.00
2018-06-01T08:00:04.156Z,62240.00
2018-06-01T08:01:04.188Z,46720.00
2018-06-01T08:02:04.227Z,34656.00
2018-06-01T08:03:04.231Z,29728.00
2018-06-01T08:04:04.260Z,50368.00
2018-06-01T08:05:04.288Z,35456.00
2018-06-01T08:06:04.316Z,30272.00
2018-06-01T08:07:04.341Z,26848.00
2018-06-01T08:08:04.364Z,41472.00
2018-06-01T08:09:04.424Z,29696.00
2018-06-01T08:10:04.423Z,27840.00
2018-06-01T08:11:04.442Z,29984.00
2018-06-01T08:12:04.471Z,49632.00
2018-06-01T08:13:04.514Z,44896.00
2018-06-01T08:14:04.529Z,33472.00
2018-06-01T08:15:04.556Z,32896.00
2018-06-01T08:16:04.589Z,32896.00
2018-06-01T08:17:04.607Z,32480.00
2018-06-01T08:18:04.632Z,34272.00
2018-06-01T08:19:04.664Z,32800.00
2018-06-01T08:20:04.694Z,35712.00
2018-06-01T08:21:04.717Z,49952.00
2018-06-01T08:22:04.751Z,56384.00
2018-06-01T08:23:04.777Z,39552.00
2018-06-01T08:24:04.802Z,32704.00
2018-06-01T08:25:04.827Z,29856.00
2018-06-01T08:26:04.858Z,25664.00
2018-06-01T08:27:04.936Z,22528.00
2018-06-01T08:28:04.909Z,19520.00
2018-06-01T08:29:04.950Z,16864.00
2018-06-01T08:30:04.967Z,14228.00
2018-06-01T08:31:04.990Z,11448.00
2018-06-01T08:32:05.025Z,9252.00
2018-06-01T08:33:05.047Z,8364.00
2018-06-01T08:34:05.083Z,8076.00
2018-06-01T08:35:05.097Z,7880.00
2018-06-01T08:36:05.130Z,7728.00
2018-06-01T08:37:05.153Z,7652.00
2018-06-01T08:38:05.189Z,7860.00
2018-06-01T08:39:05.224Z,8144.00
2018-06-01T08:40:05.230Z,8248.00
2018-06-01T08:41:05.262Z,8324.00
2018-06-01T08:42:05.309Z,8432.00
2018-06-01T08:43:05.313Z,8536.00
2018-06-01T08:44:05.360Z,8832.00
2018-06-01T08:45:05.362Z,9184.00
2018-06-01T08:46:05.390Z,9812.00
2018-06-01T08:47:05.430Z,10624.00
2018-06-01T08:48:05.452Z,11328.00
2018-06-01T08:49:05.481Z,11956.00
2018-06-01T08:50:05.492Z,12644.00
2018-06-01T08:51:05.520Z,13360.00
2018-06-01T08:52:05.556Z,14504.00
2018-06-01T08:53:05.579Z,15788.00
2018-06-01T08:54:05.617Z,17312.00
2018-06-01T08:55:05.623Z,18208.00
2018-06-01T08:56:05.642Z,18848.00
2018-06-01T08:57:05.714Z,19040.00
2018-06-01T08:58:05.702Z,18848.00
2018-06-01T08:59:05.773Z,18464.00
2018-06-01T09:00:05.759Z,18144.00
2018-06-01T09:01:05.778Z,17824.00
2018-06-01T09:02:05.802Z,18080.00
2018-06-01T09:03:05.845Z,19424.00
2018-06-01T09:04:05.863Z,22400.00
2018-06-01T09:05:05.876Z,23168.00
2018-06-01T09:06:05.902Z,17568.00
2018-06-01T09:07:05.935Z,12412.00
2018-06-01T09:08:05.953Z,9912.00
2018-06-01T09:09:05.977Z,8768.00
2018-06-01T09:10:06.083Z,8336.00
2018-06-01T09:11:06.041Z,8588.00
2018-06-01T09:12:06.059Z,9036.00
2018-06-01T09:13:06.107Z,9392.00
2018-06-01T09:14:06.111Z,9188.00
2018-06-01T09:15:06.140Z,8844.00
2018-06-01T09:16:06.153Z,8936.00
2018-06-01T09:17:06.179Z,9216.00
2018-06-01T09:18:06.214Z,9612.00
2018-06-01T09:19:06.231Z,10148.00
2018-06-01T09:20:06.258Z,10892.00
2018-06-01T09:21:06.306Z,12032.00
2018-06-01T09:22:06.344Z,13412.00
2018-06-01T09:23:06.349Z,14408.00
2018-06-01T09:24:06.357Z,14948.00
2018-06-01T09:25:06.411Z,15332.00
2018-06-01T09:26:06.414Z,15624.00
2018-06-01T09:27:06.436Z,15548.00
2018-06-01T09:28:06.502Z,15308.00
2018-06-01T09:29:06.485Z,15336.00
2018-06-01T09:30:06.510Z,15596.00
2018-06-01T09:31:06.548Z,16092.00
2018-06-01T09:32:06.566Z,16688.00
2018-06-01T09:33:06.595Z,17440.00
2018-06-01T09:34:06.614Z,18176.00
2018-06-01T09:35:06.630Z,18176.00
2018-06-01T09:36:06.680Z,17984.00
2018-06-01T09:37:06.682Z,18688.00
2018-06-01T09:38:06.715Z,20864.00
2018-06-01T09:39:06.739Z,24064.00
2018-06-01T09:40:06.757Z,24928.00
2018-06-01T09:41:06.790Z,23712.00
2018-06-01T09:42:06.817Z,22048.00
2018-06-01T09:43:06.840Z,20512.00
2018-06-01T09:44:06.869Z,19168.00
2018-06-01T09:45:06.885Z,18464.00
2018-06-01T09:46:06.926Z,17824.00
2018-06-01T09:47:06.950Z,17696.00
2018-06-01T09:48:06.966Z,17280.00
2018-06-01T09:49:06.988Z,17152.00
2018-06-01T09:50:07.022Z,17760.00
2018-06-01T09:51:07.039Z,19328.00
2018-06-01T09:52:07.065Z,20992.00
2018-06-01T09:53:07.090Z,21792.00
2018-06-01T09:54:07.147Z,22016.00
2018-06-01T09:55:07.145Z,21952.00
2018-06-01T09:56:07.179Z,21792.00
2018-06-01T09:57:07.204Z,21696.00
2018-06-01T09:58:07.217Z,21472.00
2018-06-01T09:59:07.261Z,20800.00
2018-06-01T10:00:07.301Z,19424.00
2018-06-01T10:01:07.303Z,17024.00
2018-06-01T10:02:07.334Z,14536.00
2018-06-01T10:03:07.363Z,12500.00
2018-06-01T10:04:07.378Z,10956.00
2018-06-01T10:05:07.404Z,10316.00
2018-06-01T10:06:07.437Z,9648.00
2018-06-01T10:07:07.460Z,9080.00
2018-06-01T10:08:07.474Z,9292.00
2018-06-01T10:09:07.508Z,10528.00
2018-06-01T10:10:07.536Z,12536.00
2018-06-01T10:11:07.557Z,14232.00
2018-06-01T10:12:07.579Z,14996.00
2018-06-01T10:13:07.613Z,14820.00
2018-06-01T10:14:07.633Z,14596.00
2018-06-01T10:15:07.659Z,14756.00
2018-06-01T10:16:07.693Z,15092.00
2018-06-01T10:17:07.712Z,14980.00
2018-06-01T10:18:07.741Z,14960.00
2018-06-01T10:19:07.763Z,14976.00
2018-06-01T10:20:07.789Z,14888.00
2018-06-01T10:21:07.811Z,14556.00
2018-06-01T10:22:07.852Z,13640.00
2018-06-01T10:23:07.878Z,12692.00
2018-06-01T10:24:07.943Z,12340.00
2018-06-01T10:25:07.940Z,12216.00
2018-06-01T10:26:07.952Z,11992.00
2018-06-01T10:27:07.963Z,11676.00
2018-06-01T10:28:07.989Z,11216.00
2018-06-01T10:29:08.019Z,10704.00
2018-06-01T10:30:08.040Z,10352.00
2018-06-01T10:31:08.079Z,10284.00
2018-06-01T10:32:08.107Z,10396.00
2018-06-01T10:33:08.123Z,10760.00
2018-06-01T10:34:08.145Z,11368.00
2018-06-01T10:35:08.186Z,11996.00
2018-06-01T10:36:08.195Z,12544.00
2018-06-01T10:37:08.226Z,12832.00
2018-06-01T10:38:08.247Z,12948.00
2018-06-01T10:39:08.278Z,12892.00
2018-06-01T10:40:08.294Z,12812.00
2018-06-01T10:41:08.319Z,12560.00
2018-06-01T10:42:08.355Z,12164.00
2018-06-01T10:43:08.379Z,11656.00
2018-06-01T10:44:08.400Z,10980.00
2018-06-01T10:45:08.425Z,10408.00
2018-06-01T10:46:08.455Z,9936.00
2018-06-01T10:47:08.476Z,9248.00
2018-06-01T10:48:08.499Z,8304.00
2018-06-01T10:49:08.525Z,7264.00
2018-06-01T10:50:08.548Z,6304.00
2018-06-01T10:51:08.590Z,5476.00
2018-06-01T10:52:08.604Z,4836.00
2018-06-01T10:53:08.623Z,4436.00
2018-06-01T10:54:08.654Z,4236.00
2018-06-01T10:55:08.731Z,4188.00
2018-06-01T10:56:08.698Z,4260.00
2018-06-01T10:57:08.723Z,4400.00
2018-06-01T10:58:08.753Z,4556.00
2018-06-01T10:59:08.786Z,4700.00
2018-06-01T11:00:08.802Z,4824.00
2018-06-01T11:01:08.831Z,4912.00
2018-06-01T11:02:08.858Z,5004.00
2018-06-01T11:03:08.891Z,5088.00
2018-06-01T11:04:08.906Z,5216.00
2018-06-01T11:05:08.943Z,5424.00
2018-06-01T11:06:08.950Z,5684.00
2018-06-01T11:07:08.982Z,6080.00
2018-06-01T11:08:08.998Z,6732.00
2018-06-01T11:09:09.024Z,7592.00
2018-06-01T11:10:09.044Z,8516.00
2018-06-01T11:11:09.089Z,9420.00
2018-06-01T11:12:09.103Z,10268.00
2018-06-01T11:13:09.121Z,10928.00
2018-06-01T11:14:09.148Z,11448.00
2018-06-01T11:15:09.183Z,11744.00
2018-06-01T11:16:09.195Z,12124.00
2018-06-01T11:17:09.219Z,12520.00
2018-06-01T11:18:09.269Z,12948.00
2018-06-01T11:19:09.275Z,13264.00
2018-06-01T11:20:09.308Z,13512.00
2018-06-01T11:21:09.319Z,13708.00
2018-06-01T11:22:09.341Z,13776.00
2018-06-01T11:23:09.364Z,13688.00
2018-06-01T11:24:09.387Z,13576.00
2018-06-01T11:25:09.427Z,13452.00
2018-06-01T11:26:09.435Z,13260.00
2018-06-01T11:27:09.469Z,12956.00
2018-06-01T11:28:09.508Z,12668.00
2018-06-01T11:29:09.539Z,12460.00
2018-06-01T11:30:09.538Z,12232.00
2018-06-01T11:31:09.567Z,11976.00
2018-06-01T11:32:09.590Z,11716.00
2018-06-01T11:33:09.613Z,11392.00
2018-06-01T11:34:09.643Z,10960.00
2018-06-01T11:35:09.663Z,10448.00
2018-06-01T11:36:09.692Z,9892.00
2018-06-01T11:37:09.713Z,9296.00
2018-06-01T11:38:09.758Z,8620.00
2018-06-01T11:39:09.799Z,7956.00
2018-06-01T11:40:09.795Z,7488.00
2018-06-01T11:41:09.804Z,7184.00
2018-06-01T11:42:09.833Z,6936.00
2018-06-01T11:43:09.860Z,6620.00
2018-06-01T11:44:09.879Z,6128.00
2018-06-01T11:45:09.922Z,5500.00
2018-06-01T11:46:09.948Z,4840.00
2018-06-01T11:47:09.967Z,4320.00
2018-06-01T11:48:09.992Z,3876.00
2018-06-01T11:49:10.005Z,3528.00
2018-06-01T11:50:10.034Z,3288.00
2018-06-01T11:51:10.053Z,3124.00
2018-06-01T11:52:10.092Z,3024.00
2018-06-01T11:53:10.119Z,2972.00
2018-06-01T11:54:10.134Z,2956.00
2018-06-01T11:55:10.154Z,2968.00
2018-06-01T11:56:10.174Z,2992.00
2018-06-01T11:57:10.202Z,3000.00
2018-06-01T11:58:10.234Z,2952.00
2018-06-01T11:59:10.262Z,2872.00
2018-06-01T12:00:10.276Z,2792.00
2018-06-01T12:01:10.302Z,2732.00
2018-06-01T12:02:10.318Z,2700.00
2018-06-01T12:03:10.369Z,2740.00
2018-06-01T12:04:10.375Z,2820.00
2018-06-01T12:05:10.417Z,2960.00
2018-06-01T12:06:10.423Z,3172.00
2018-06-01T12:07:10.452Z,3492.00
2018-06-01T12:08:10.465Z,3836.00
2018-06-01T12:09:10.499Z,4144.00
2018-06-01T12:10:10.518Z,4340.00
2018-06-01T12:11:10.549Z,4488.00
2018-06-01T12:12:10.566Z,4608.00
2018-06-01T12:13:10.590Z,4728.00
2018-06-01T12:14:10.615Z,4864.00